Time;durP1;ratioP1;P1;durP2;ratioP2;P2;SDS_P1;SDS_P2;PMS_P1;PMS_P2;Temp;Humidity;BMP_temperature;BMP_pressure;BME280_temperature;BME280_humidity;BME280_pressure;Samples;Min_cycle;Max_cycle;Signal;HPM_P1;HPM_P2
2021/08/06 00:01:49;;;;;;;1999.90;999.90;;;20.10;99.90;;;;;;4989345;28;20694;-71
2021/08/06 00:04:15;;;;;;;1999.90;999.90;;;20.10;99.90;;;;;;4989784;28;20437;-67
2021/08/06 00:06:41;;;;;;;1999.90;999.90;;;20.10;99.90;;;;;;4989259;28;20272;-67
2021/08/06 00:09:09;;;;;;;1999.90;999.90;;;20.00;99.90;;;;;;4989177;28;20186;-70
2021/08/06 00:11:35;;;;;;;1999.90;999.90;;;20.00;99.90;;;;;;4989713;28;20210;-67
2021/08/06 00:14:01;;;;;;;1999.90;999.90;;;20.00;99.90;;;;;;4989039;28;20436;-67
2021/08/06 00:16:27;;;;;;;1999.90;999.90;;;20.00;99.90;;;;;;4988617;28;20434;-67
2021/08/06 00:18:53;;;;;;;1999.90;999.90;;;20.00;99.90;;;;;;4989511;28;20797;-67
2021/08/06 00:21:19;;;;;;;1999.90;999.90;;;20.00;99.90;;;;;;4989210;28;20436;-67
2021/08/06 00:23:46;;;;;;;1999.90;999.90;;;20.00;99.90;;;;;;4989017;28;20419;-67
2021/08/06 00:26:15;;;;;;;1999.90;999.90;;;19.90;99.90;;;;;;4989548;28;20233;-67
2021/08/06 00:28:41;;;;;;;1999.90;999.90;;;20.00;99.90;;;;;;4989140;28;20980;-67
2021/08/06 00:31:07;;;;;;;1999.90;999.90;;;20.00;99.90;;;;;;4989030;28;20824;-67
2021/08/06 00:33:33;;;;;;;1999.90;999.90;;;20.00;99.90;;;;;;4989435;28;20436;-72
2021/08/06 00:35:58;;;;;;;1999.90;999.90;;;20.00;99.90;;;;;;4988676;28;20193;-68
2021/08/06 00:38:24;;;;;;;1999.90;999.90;;;20.00;99.90;;;;;;4988919;28;20549;-73
2021/08/06 00:40:50;;;;;;;1999.90;999.90;;;20.00;99.90;;;;;;4989678;28;20177;-68
2021/08/06 00:43:15;;;;;;;1999.90;999.90;;;20.10;99.90;;;;;;4988788;28;20226;-67
2021/08/06 00:45:41;;;;;;;1999.90;999.90;;;20.10;99.90;;;;;;4989044;28;20182;-73
2021/08/06 00:48:07;;;;;;;1999.90;999.90;;;20.10;99.90;;;;;;4989213;28;20201;-70
2021/08/06 00:50:33;;;;;;;1999.90;999.90;;;20.00;99.90;;;;;;4988896;28;20423;-67
2021/08/06 00:53:00;;;;;;;1999.90;999.90;;;20.00;99.90;;;;;;4989049;28;20459;-72
2021/08/06 00:55:25;;;;;;;1999.90;999.90;;;20.00;99.90;;;;;;4988715;28;20190;-67
2021/08/06 00:57:51;;;;;;;1999.90;999.90;;;19.90;99.90;;;;;;4988864;28;20416;-67
2021/08/06 01:00:17;;;;;;;1999.90;999.90;;;20.00;99.90;;;;;;4989354;28;20261;-71
2021/08/06 01:02:52;;;;;;;1999.90;999.90;;;20.00;99.90;;;;;;4988807;28;20266;-69
2021/08/06 01:05:21;;;;;;;1999.90;999.90;;;20.00;99.90;;;;;;4988524;28;20820;-67
2021/08/06 01:08:02;;;;;;;1999.90;999.90;;;20.00;99.90;;;;;;4988473;28;20426;-68
2021/08/06 01:10:40;;;;;;;1999.90;999.90;;;20.00;99.90;;;;;;4988809;28;20456;-67
2021/08/06 01:13:09;;;;;;;1999.90;999.90;;;20.00;99.90;;;;;;4988608;28;20496;-67
2021/08/06 01:15:36;;;;;;;1999.90;999.90;;;19.90;99.90;;;;;;4988286;28;20819;-67
2021/08/06 01:18:05;;;;;;;1999.90;999.90;;;19.90;99.90;;;;;;4989201;28;20520;-67
2021/08/06 01:20:40;;;;;;;1999.90;999.90;;;19.80;99.90;;;;;;4988741;28;20840;-67
2021/08/06 01:23:22;;;;;;;1999.90;999.90;;;19.80;99.90;;;;;;4988500;28;20430;-67
2021/08/06 01:26:03;;;;;;;1999.90;999.90;;;19.80;99.90;;;;;;4988589;28;20412;-71
2021/08/06 01:28:35;;;;;;;1999.90;999.90;;;19.80;99.90;;;;;;4991135;28;20516;-67
2021/08/06 01:31:01;;;;;;;1999.90;999.90;;;19.80;99.90;;;;;;4992487;28;20421;-67
2021/08/06 01:33:26;;;;;;;1999.90;999.90;;;19.80;99.90;;;;;;4991961;28;20462;-70
2021/08/06 01:35:52;;;;;;;1999.90;999.90;;;19.80;99.90;;;;;;4992216;28;20428;-69
2021/08/06 01:38:18;;;;;;;1999.90;999.90;;;19.80;99.90;;;;;;4992315;28;20675;-68
2021/08/06 01:41:15;;;;;;;1999.90;999.90;;;19.70;99.90;;;;;;4991817;28;20310;-68
2021/08/06 01:43:51;;;;;;;1999.90;999.90;;;19.70;99.90;;;;;;4992463;28;20512;-75
2021/08/06 01:46:23;;;;;;;1999.90;999.90;;;19.60;99.90;;;;;;4992438;28;20470;-68
2021/08/06 01:48:54;;;;;;;1999.90;999.90;;;19.60;99.90;;;;;;4992004;28;20420;-67
2021/08/06 01:51:22;;;;;;;1999.90;999.90;;;19.60;99.90;;;;;;4991836;28;21147;-67
2021/08/06 01:53:49;;;;;;;1999.90;999.90;;;19.60;99.90;;;;;;4991471;28;20864;-70
2021/08/06 01:56:20;;;;;;;1999.90;999.90;;;19.60;99.90;;;;;;4992157;28;20414;-67
2021/08/06 01:58:49;;;;;;;1999.90;999.90;;;19.60;99.90;;;;;;4992024;28;20412;-67
2021/08/06 02:01:15;;;;;;;1999.90;999.90;;;19.60;99.90;;;;;;4991485;28;20407;-67
2021/08/06 02:03:41;;;;;;;1999.90;999.90;;;19.50;99.90;;;;;;4991532;28;20439;-71
2021/08/06 02:06:08;;;;;;;1999.90;999.90;;;19.60;99.90;;;;;;4991870;28;20403;-67
2021/08/06 02:08:38;;;;;;;1999.90;999.90;;;19.50;99.90;;;;;;4991262;28;20663;-70
2021/08/06 02:11:05;;;;;;;1999.90;999.90;;;19.50;99.90;;;;;;4991411;28;20822;-67
2021/08/06 02:13:31;;;;;;;1999.90;999.90;;;19.40;99.90;;;;;;4991672;28;20582;-74
2021/08/06 02:15:58;;;;;;;1999.90;999.90;;;19.30;99.90;;;;;;4991459;28;20445;-70
2021/08/06 02:18:24;;;;;;;1999.90;999.90;;;19.20;99.90;;;;;;4991610;28;20770;-67
2021/08/06 02:20:56;;;;;;;1999.90;999.90;;;19.10;99.90;;;;;;4991737;28;20424;-68
2021/08/06 02:23:24;;;;;;;1999.90;999.90;;;19.20;99.90;;;;;;4991469;28;20421;-67
2021/08/06 02:25:52;;;;;;;1999.90;999.90;;;19.10;99.90;;;;;;4991134;28;20416;-67
2021/08/06 02:28:19;;;;;;;1999.90;999.90;;;19.10;99.90;;;;;;4991103;28;20546;-71
2021/08/06 02:30:46;;;;;;;1999.90;999.90;;;19.10;99.90;;;;;;4991691;28;20408;-71
2021/08/06 02:33:13;;;;;;;1999.90;999.90;;;19.10;99.90;;;;;;4990860;28;20949;-68
2021/08/06 02:35:38;;;;;;;1999.90;999.90;;;19.10;99.90;;;;;;4990827;28;20405;-73
2021/08/06 02:38:04;;;;;;;1999.90;999.90;;;19.10;99.90;;;;;;4991674;28;20494;-70
2021/08/06 02:40:30;;;;;;;1999.90;999.90;;;19.10;99.90;;;;;;4990178;28;20180;-70
2021/08/06 02:42:56;;;;;;;1999.90;999.90;;;19.10;99.90;;;;;;4990933;28;20178;-68
2021/08/06 02:45:21;;;;;;;1999.90;999.90;;;19.10;99.90;;;;;;4991019;28;21163;-70
2021/08/06 02:47:47;;;;;;;1999.90;999.90;;;19.10;99.90;;;;;;4990611;28;20179;-70
2021/08/06 02:50:13;;;;;;;1999.90;999.90;;;19.10;99.90;;;;;;4991194;28;20312;-70
2021/08/06 02:52:40;;;;;;;1999.90;999.90;;;19.00;99.90;;;;;;4990792;28;20235;-70
2021/08/06 02:55:06;;;;;;;1999.90;999.90;;;19.00;99.90;;;;;;4990342;28;21029;-70
2021/08/06 02:57:32;;;;;;;1999.90;999.90;;;19.00;99.90;;;;;;4991031;28;20481;-70
2021/08/06 02:59:57;;;;;;;1999.90;999.90;;;19.00;99.90;;;;;;4990434;28;20515;-70
2021/08/06 03:02:23;;;;;;;1999.90;999.90;;;19.00;99.90;;;;;;4990384;28;20712;-71
2021/08/06 03:04:48;;;;;;;1999.90;999.90;;;19.00;99.90;;;;;;4990880;28;20272;-69
2021/08/06 03:07:14;;;;;;;1999.90;999.90;;;19.00;99.90;;;;;;4990487;28;20259;-69
2021/08/06 03:09:39;;;;;;;1999.90;999.90;;;19.10;99.90;;;;;;4990483;28;20184;-69
2021/08/06 03:12:05;;;;;;;1999.90;999.90;;;19.10;99.90;;;;;;4973251;28;20731;-70
2021/08/06 03:14:31;;;;;;;1999.90;999.90;;;19.10;99.90;;;;;;4989951;28;20194;-70
2021/08/06 03:16:57;;;;;;;1999.90;999.90;;;19.10;99.90;;;;;;4990628;28;20421;-69
2021/08/06 03:19:22;;;;;;;1999.90;999.90;;;19.10;99.90;;;;;;4990345;28;20185;-70
2021/08/06 03:21:48;;;;;;;1999.90;999.90;;;19.10;99.90;;;;;;4989703;28;20644;-68
2021/08/06 03:24:13;;;;;;;1999.90;999.90;;;19.10;99.90;;;;;;4972956;28;20193;-70
2021/08/06 03:26:39;;;;;;;1999.90;999.90;;;19.10;99.90;;;;;;4990152;28;20191;-69
2021/08/06 03:29:04;;;;;;;1999.90;999.90;;;19.10;99.90;;;;;;4989838;28;20176;-68
2021/08/06 03:31:31;;;;;;;1999.90;999.90;;;19.10;99.90;;;;;;4990100;28;20198;-68
2021/08/06 03:33:57;;;;;;;1999.90;999.90;;;19.10;99.90;;;;;;4989585;28;20227;-70
2021/08/06 03:36:22;;;;;;;1999.90;999.90;;;19.10;99.90;;;;;;4990121;28;20405;-68
2021/08/06 03:38:48;;;;;;;1999.90;999.90;;;19.10;99.90;;;;;;4990209;28;20172;-70
2021/08/06 03:41:13;;;;;;;1999.90;999.90;;;19.00;99.90;;;;;;4989440;28;20182;-69
2021/08/06 03:43:39;;;;;;;1999.90;999.90;;;19.10;99.90;;;;;;4990155;28;20199;-70
2021/08/06 03:46:05;;;;;;;1999.90;999.90;;;19.00;99.90;;;;;;4989656;28;20260;-70
2021/08/06 03:48:30;;;;;;;1999.90;999.90;;;19.00;99.90;;;;;;4989330;28;20699;-70
2021/08/06 03:50:56;;;;;;;1999.90;999.90;;;19.00;99.90;;;;;;4989459;28;20184;-70
2021/08/06 03:53:21;;;;;;;1999.90;999.90;;;19.00;99.90;;;;;;4988955;28;20698;-70
2021/08/06 03:55:47;;;;;;;1999.90;999.90;;;19.00;99.90;;;;;;4989554;28;20230;-69
2021/08/06 03:58:13;;;;;;;1999.90;999.90;;;19.00;99.90;;;;;;4989846;28;20859;-70
2021/08/06 04:00:39;;;;;;;1999.90;999.90;;;19.00;99.90;;;;;;4989395;28;20260;-70
2021/08/06 04:03:05;;;;;;;1999.90;999.90;;;18.90;99.90;;;;;;4989367;28;20184;-68
2021/08/06 04:05:32;;;;;;;1999.90;999.90;;;18.90;99.90;;;;;;4989637;28;20430;-70
2021/08/06 04:07:58;;;;;;;1999.90;999.90;;;18.90;99.90;;;;;;4989243;28;20852;-70
2021/08/06 04:10:24;;;;;;;1999.90;999.90;;;18.90;99.90;;;;;;4989441;28;20421;-69
2021/08/06 04:12:51;;;;;;;1999.90;999.90;;;18.80;99.90;;;;;;4989450;28;20450;-70
2021/08/06 04:15:18;;;;;;;1999.90;999.90;;;18.80;99.90;;;;;;4988934;28;20430;-69
2021/08/06 04:17:43;;;;;;;1999.90;999.90;;;18.80;99.90;;;;;;4989443;28;20923;-68
2021/08/06 04:20:10;;;;;;;1999.90;999.90;;;18.70;99.90;;;;;;4989557;28;20426;-68
2021/08/06 04:22:36;;;;;;;1999.90;999.90;;;18.70;99.90;;;;;;4988649;28;20223;-69
2021/08/06 04:25:02;;;;;;;1999.90;999.90;;;18.70;99.90;;;;;;4989325;28;20471;-67
2021/08/06 04:27:28;;;;;;;1999.90;999.90;;;18.70;99.90;;;;;;4989394;28;20810;-70
2021/08/06 04:29:53;;;;;;;1999.90;999.90;;;18.70;99.90;;;;;;4988794;28;20409;-70
2021/08/06 04:32:19;;;;;;;1999.90;999.90;;;18.70;99.90;;;;;;4989226;28;20209;-71
2021/08/06 04:34:45;;;;;;;1999.90;999.90;;;18.70;99.90;;;;;;4988844;28;20192;-70
2021/08/06 04:37:11;;;;;;;1999.90;999.90;;;18.70;99.90;;;;;;4989044;28;20202;-70
2021/08/06 04:39:37;;;;;;;1999.90;999.90;;;18.70;99.90;;;;;;4989551;28;20179;-70
2021/08/06 04:42:03;;;;;;;1999.90;999.90;;;18.80;99.90;;;;;;4988539;28;20507;-69
2021/08/06 04:44:31;;;;;;;1999.90;999.90;;;18.70;99.90;;;;;;4988603;28;20202;-69
2021/08/06 04:46:56;;;;;;;1999.90;999.90;;;18.80;99.90;;;;;;4989476;28;20785;-70
2021/08/06 04:49:22;;;;;;;1999.90;999.90;;;18.80;99.90;;;;;;4988766;28;20497;-69
2021/08/06 04:51:47;;;;;;;1999.90;999.90;;;18.80;99.90;;;;;;4988597;28;20199;-69
2021/08/06 04:54:13;;;;;;;1999.90;999.90;;;18.90;99.90;;;;;;4989016;28;20781;-70
2021/08/06 04:56:39;;;;;;;1999.90;999.90;;;18.80;99.90;;;;;;4989411;28;20177;-69
2021/08/06 04:59:05;;;;;;;1999.90;999.90;;;18.80;99.90;;;;;;4989078;28;20675;-68
2021/08/06 05:01:31;;;;;;;1999.90;999.90;;;18.80;99.90;;;;;;4988715;28;20416;-68
2021/08/06 05:03:57;;;;;;;1999.90;999.90;;;18.80;99.90;;;;;;4991329;28;20198;-68
2021/08/06 05:06:22;;;;;;;1999.90;999.90;;;18.80;99.90;;;;;;4993070;28;20802;-70
2021/08/06 05:08:49;;;;;;;1999.90;999.90;;;18.80;99.90;;;;;;4993486;28;20858;-67
2021/08/06 05:11:16;;;;;;;1999.90;999.90;;;18.90;99.90;;;;;;4991962;28;20176;-68
2021/08/06 05:13:42;;;;;;;1999.90;999.90;;;18.90;99.90;;;;;;4992842;28;20465;-68
2021/08/06 05:16:08;;;;;;;1999.90;999.90;;;18.90;99.90;;;;;;4992488;28;20454;-68
2021/08/06 05:18:38;;;;;;;1999.90;999.90;;;18.80;99.90;;;;;;4992121;28;20639;-68
2021/08/06 05:21:04;;;;;;;1999.90;999.90;;;18.90;99.90;;;;;;4992656;28;20509;-69
2021/08/06 05:23:30;;;;;;;1999.90;999.90;;;18.80;99.90;;;;;;4991942;28;20439;-69
2021/08/06 05:25:56;;;;;;;1999.90;999.90;;;18.70;99.90;;;;;;4991999;28;20418;-68
2021/08/06 05:28:21;;;;;;;1999.90;999.90;;;18.70;99.90;;;;;;4992772;28;20241;-68
2021/08/06 05:30:47;;;;;;;1999.90;999.90;;;18.80;99.90;;;;;;4991852;28;20424;-68
2021/08/06 05:33:12;;;;;;;1999.90;999.90;;;18.80;99.90;;;;;;4991750;28;20206;-68
2021/08/06 05:35:39;;;;;;;1999.90;999.90;;;18.80;99.90;;;;;;4992422;28;20207;-68
2021/08/06 05:38:05;;;;;;;1999.90;999.90;;;18.80;99.90;;;;;;4991882;28;20170;-68
2021/08/06 05:40:31;;;;;;;1999.90;999.90;;;18.90;99.90;;;;;;4992142;28;20774;-68
2021/08/06 05:42:57;;;;;;;1999.90;999.90;;;18.90;99.90;;;;;;4991893;28;20182;-68
2021/08/06 05:45:23;;;;;;;1999.90;999.90;;;19.00;99.90;;;;;;4991549;28;20410;-68
2021/08/06 05:47:51;;;;;;;1999.90;999.90;;;19.00;99.90;;;;;;4992171;28;20314;-70
2021/08/06 05:50:18;;;;;;;1999.90;999.90;;;19.10;99.90;;;;;;4992274;28;20500;-67
2021/08/06 05:52:44;;;;;;;1999.90;999.90;;;19.20;99.90;;;;;;4991256;28;20455;-68
2021/08/06 05:55:11;;;;;;;1999.90;999.90;;;19.30;99.90;;;;;;4991449;28;20446;-70
2021/08/06 05:57:37;;;;;;;1999.90;999.90;;;19.30;99.90;;;;;;4992189;28;20384;-68
2021/08/06 06:00:04;;;;;;;1999.90;999.90;;;19.40;99.90;;;;;;4991620;28;20409;-68
2021/08/06 06:02:30;;;;;;;1999.90;999.90;;;19.40;99.90;;;;;;4990995;28;20432;-69
2021/08/06 06:04:55;;;;;;;1999.90;999.90;;;19.40;99.90;;;;;;4991866;28;20442;-68
2021/08/06 06:07:21;;;;;;;1999.90;999.90;;;19.40;99.90;;;;;;4991447;28;20248;-68
2021/08/06 06:09:46;;;;;;;1999.90;999.90;;;19.50;99.90;;;;;;4991676;28;20565;-70
2021/08/06 06:12:12;;;;;;;1999.90;999.90;;;19.50;99.90;;;;;;4991261;28;20201;-69
2021/08/06 06:14:37;;;;;;;1999.90;999.90;;;19.50;99.90;;;;;;4989860;28;20557;-68
2021/08/06 06:17:03;;;;;;;1999.90;999.90;;;19.40;99.90;;;;;;4991797;28;20187;-68
2021/08/06 06:19:29;;;;;;;1999.90;999.90;;;19.40;99.90;;;;;;4990969;28;20170;-68
2021/08/06 06:21:54;;;;;;;1999.90;999.90;;;19.50;99.90;;;;;;4990667;28;20455;-69
2021/08/06 06:24:20;;;;;;;1999.90;999.90;;;19.50;99.90;;;;;;4991212;28;20282;-68
2021/08/06 06:26:46;;;;;;;1999.90;999.90;;;19.50;99.90;;;;;;4990869;28;20190;-68
2021/08/06 06:29:11;;;;;;;1999.90;999.90;;;19.60;99.90;;;;;;4991240;28;20662;-68
2021/08/06 06:31:37;;;;;;;1999.90;999.90;;;19.60;99.90;;;;;;4991102;28;20220;-68
2021/08/06 06:34:02;;;;;;;1999.90;999.90;;;19.50;99.90;;;;;;4990475;28;20680;-69
2021/08/06 06:36:28;;;;;;;1999.90;999.90;;;19.60;99.90;;;;;;4991151;28;20186;-69
2021/08/06 06:38:54;;;;;;;1999.90;999.90;;;19.60;99.90;;;;;;4991055;28;20166;-68
2021/08/06 06:41:19;;;;;;;1999.90;999.90;;;19.60;99.90;;;;;;4990754;28;20643;-68
2021/08/06 06:43:45;;;;;;;1999.90;999.90;;;19.60;99.90;;;;;;4990751;28;20198;-69
2021/08/06 06:46:10;;;;;;;1999.90;999.90;;;19.60;99.90;;;;;;4990888;28;20194;-67
2021/08/06 06:48:36;;;;;;;1999.90;999.90;;;19.70;99.90;;;;;;4991000;28;20236;-68
2021/08/06 06:51:02;;;;;;;1999.90;999.90;;;19.70;99.90;;;;;;4990958;28;20581;-68
2021/08/06 06:53:28;;;;;;;1999.90;999.90;;;19.70;99.90;;;;;;4990011;28;20264;-68
2021/08/06 06:55:53;;;;;;;1999.90;999.90;;;19.80;99.90;;;;;;4990500;28;20508;-69
2021/08/06 06:58:19;;;;;;;1999.90;999.90;;;19.80;99.90;;;;;;4991157;28;20177;-68
2021/08/06 07:00:44;;;;;;;1999.90;999.90;;;19.90;99.90;;;;;;4990388;28;20174;-68
2021/08/06 07:03:10;;;;;;;1999.90;999.90;;;19.90;99.90;;;;;;4990429;28;20609;-69
2021/08/06 07:05:36;;;;;;;1999.90;999.90;;;20.10;99.90;;;;;;4990362;28;20236;-68
2021/08/06 07:08:02;;;;;;;1999.90;999.90;;;20.10;99.90;;;;;;4990469;28;20185;-69
2021/08/06 07:10:28;;;;;;;1999.90;999.90;;;20.20;99.90;;;;;;4990626;28;20195;-68
2021/08/06 07:12:55;;;;;;;1999.90;999.90;;;20.30;99.90;;;;;;4990090;28;20464;-69
2021/08/06 07:15:21;;;;;;;1999.90;999.90;;;20.40;99.90;;;;;;4989874;28;20431;-68
2021/08/06 07:17:47;;;;;;;1999.90;999.90;;;20.60;99.90;;;;;;4991146;28;20446;-70
2021/08/06 07:20:15;;;;;;;1999.90;999.90;;;20.80;99.90;;;;;;4990189;28;20431;-69
2021/08/06 07:22:40;;;;;;;1999.90;999.90;;;20.90;99.90;;;;;;4989922;28;20458;-68
2021/08/06 07:25:08;;;;;;;1999.90;999.90;;;21.00;99.90;;;;;;4990249;28;20408;-68
2021/08/06 07:27:34;;;;;;;1999.90;999.90;;;20.90;99.90;;;;;;4990169;28;20210;-68
2021/08/06 07:29:59;;;;;;;1999.90;999.90;;;20.80;99.90;;;;;;4986919;28;20466;-69
2021/08/06 07:32:25;;;;;;;1999.90;999.90;;;20.80;99.90;;;;;;4971024;28;20228;-69
2021/08/06 07:34:51;;;;;;;1999.90;999.90;;;20.70;99.90;;;;;;4970937;28;20724;-68
2021/08/06 07:37:16;;;;;;;1999.90;999.90;;;20.50;99.90;;;;;;4988859;28;20187;-70
2021/08/06 07:39:42;;;;;;;1999.90;999.90;;;20.60;99.90;;;;;;4988493;28;20185;-69
2021/08/06 07:42:08;;;;;;;1999.90;999.90;;;20.50;99.90;;;;;;4987871;28;20247;-68
2021/08/06 07:44:34;;;;;;;1999.90;999.90;;;20.50;99.90;;;;;;4988121;28;20198;-68
2021/08/06 07:46:59;;;;;;;1999.90;999.90;;;20.40;99.90;;;;;;4988154;28;20212;-70
2021/08/06 07:49:25;;;;;;;1999.90;999.90;;;20.30;99.90;;;;;;4988554;28;20425;-69
2021/08/06 07:51:51;;;;;;;1999.90;999.90;;;20.40;99.90;;;;;;4988511;28;20208;-69
2021/08/06 07:54:16;;;;;;;1999.90;999.90;;;20.60;99.90;;;;;;4987374;28;20220;-69
2021/08/06 07:56:42;;;;;;;1999.90;999.90;;;20.70;99.90;;;;;;4988487;28;20235;-68
2021/08/06 07:59:07;;;;;;;1999.90;999.90;;;20.80;99.90;;;;;;4988948;28;20690;-69
2021/08/06 08:01:33;;;;;;;1999.90;999.90;;;20.50;99.90;;;;;;4987736;28;20181;-69
2021/08/06 08:03:59;;;;;;;1999.90;999.90;;;20.20;99.90;;;;;;4987911;28;20700;-70
2021/08/06 08:06:24;;;;;;;1999.90;999.90;;;19.50;99.90;;;;;;4988581;28;20171;-68
2021/08/06 08:08:50;;;;;;;1999.90;999.90;;;18.90;99.90;;;;;;4987961;28;20227;-68
2021/08/06 08:11:15;;;;;;;1999.90;999.90;;;18.50;99.90;;;;;;4988546;28;20643;-68
2021/08/06 08:13:41;;;;;;;1999.90;999.90;;;18.30;99.90;;;;;;4988033;28;20803;-69
2021/08/06 08:16:07;;;;;;;1999.90;999.90;;;18.10;99.90;;;;;;4987291;28;20189;-68
2021/08/06 08:18:33;;;;;;;1999.90;999.90;;;18.10;99.90;;;;;;4987606;28;20182;-68
2021/08/06 08:20:59;;;;;;;1999.90;999.90;;;18.00;99.90;;;;;;4986515;28;20421;-67
2021/08/06 08:23:25;;;;;;;1999.90;999.90;;;18.00;99.90;;;;;;4986296;28;20447;-69
2021/08/06 08:25:54;;;;;;;1999.90;999.90;;;18.00;99.90;;;;;;4987383;28;20920;-69
2021/08/06 08:28:21;;;;;;;1999.90;999.90;;;17.70;99.90;;;;;;4987545;28;20419;-70
2021/08/06 08:30:48;;;;;;;1999.90;999.90;;;17.60;99.90;;;;;;4986557;28;20408;-71
2021/08/06 08:33:15;;;;;;;1999.90;999.90;;;17.50;99.90;;;;;;4987422;28;20468;-68
2021/08/06 08:35:42;;;;;;;1999.90;999.90;;;17.50;99.90;;;;;;4986851;28;20421;-68
2021/08/06 08:38:57;;;;;;;1999.90;999.90;;;17.60;99.90;;;;;;4986123;28;20934;-69
2021/08/06 08:41:24;;;;;;;1999.90;999.90;;;17.70;99.90;;;;;;4986830;28;20419;-68
2021/08/06 08:43:50;;;;;;;1999.90;999.90;;;17.90;99.90;;;;;;4986344;28;20428;-69
2021/08/06 08:46:19;;;;;;;1999.90;999.90;;;18.10;99.90;;;;;;4987628;28;20956;-72
2021/08/06 08:48:46;;;;;;;1999.90;999.90;;;18.40;99.90;;;;;;4987111;28;20455;-70
2021/08/06 08:51:12;;;;;;;1999.90;999.90;;;18.60;99.90;;;;;;4986670;28;20413;-67
2021/08/06 08:53:38;;;;;;;1999.90;999.90;;;18.80;99.90;;;;;;4986978;28;20478;-68
2021/08/06 08:56:04;;;;;;;1999.90;999.90;;;18.90;99.90;;;;;;4986499;28;20421;-69
2021/08/06 08:58:30;;;;;;;1999.90;999.90;;;19.10;99.90;;;;;;4987226;28;20795;-69
2021/08/06 09:00:55;;;;;;;1999.90;999.90;;;19.40;99.90;;;;;;4987218;28;20169;-70
2021/08/06 09:03:39;;;;;;;1999.90;999.90;;;19.50;99.90;;;;;;4986916;28;20200;-71
2021/08/06 09:06:05;;;;;;;1999.90;999.90;;;19.70;99.90;;;;;;4986545;28;20905;-70
2021/08/06 09:08:31;;;;;;;1999.90;999.90;;;19.90;99.90;;;;;;4987180;28;20853;-70
2021/08/06 09:10:56;;;;;;;1999.90;999.90;;;20.00;99.90;;;;;;4987814;28;20427;-69
2021/08/06 09:13:24;;;;;;;1999.90;999.90;;;20.20;99.90;;;;;;4986378;28;20278;-70
2021/08/06 09:15:53;;;;;;;1999.90;999.90;;;20.30;99.90;;;;;;4986537;28;20180;-69
2021/08/06 09:18:28;;;;;;;1999.90;999.90;;;20.30;99.90;;;;;;4987749;28;20932;-67
2021/08/06 09:20:56;;;;;;;1999.90;999.90;;;20.40;99.90;;;;;;4986733;28;20424;-71
2021/08/06 09:23:43;;;;;;;1999.90;999.90;;;20.60;99.90;;;;;;4986689;28;21252;-70
2021/08/06 09:26:28;;;;;;;1999.90;999.90;;;20.70;99.90;;;;;;4987039;28;20843;-69
2021/08/06 09:29:08;;;;;;;1999.90;999.90;;;20.80;99.90;;;;;;4986593;28;20387;-70
2021/08/06 09:31:37;;;;;;;1999.90;999.90;;;20.90;99.90;;;;;;4986692;28;20387;-71
2021/08/06 09:34:20;;;;;;;1999.90;999.90;;;20.90;99.90;;;;;;4986579;28;20434;-67
2021/08/06 09:37:06;;;;;;;1999.90;999.90;;;20.90;99.90;;;;;;4986276;28;20492;-69
2021/08/06 09:39:53;;;;;;;1999.90;999.90;;;20.80;99.90;;;;;;4987181;28;20541;-70
2021/08/06 09:42:38;;;;;;;1999.90;999.90;;;20.80;99.90;;;;;;4986609;28;20501;-69
2021/08/06 09:45:15;;;;;;;1999.90;999.90;;;20.90;99.90;;;;;;4986029;28;20502;-69
2021/08/06 09:47:44;;;;;;;1999.90;999.90;;;21.00;99.90;;;;;;4987313;28;20448;-69
2021/08/06 09:50:16;;;;;;;1999.90;999.90;;;21.00;99.90;;;;;;4988976;28;20572;-70
2021/08/06 09:52:45;;;;;;;1999.90;999.90;;;21.20;99.90;;;;;;4989892;28;20446;-69
2021/08/06 09:55:19;;;;;;;1999.90;999.90;;;21.40;99.90;;;;;;4989792;28;20440;-70
2021/08/06 09:57:46;;;;;;;1999.90;999.90;;;21.60;99.90;;;;;;4989855;28;20911;-70
2021/08/06 10:00:16;;;;;;;1999.90;999.90;;;21.80;99.90;;;;;;4990652;28;20427;-68
2021/08/06 10:02:42;;;;;;;1999.90;999.90;;;21.90;99.90;;;;;;4990112;28;20416;-69
2021/08/06 10:05:14;;;;;;;1999.90;999.90;;;21.90;99.90;;;;;;4989106;28;20845;-69
2021/08/06 10:07:44;;;;;;;1999.90;999.90;;;21.80;99.90;;;;;;4990182;28;20419;-68
2021/08/06 10:10:13;;;;;;;1999.90;999.90;;;21.70;99.90;;;;;;4990499;28;20445;-69
2021/08/06 10:12:39;;;;;;;1999.90;999.90;;;21.80;99.90;;;;;;4989828;28;20520;-70
2021/08/06 10:15:05;;;;;;;1999.90;999.90;;;21.90;99.90;;;;;;4989547;28;20491;-69
2021/08/06 10:17:31;;;;;;;1999.90;999.90;;;22.00;99.90;;;;;;4990130;28;20178;-69
2021/08/06 10:19:57;;;;;;;1999.90;999.90;;;21.90;99.90;;;;;;4990110;28;21184;-69
2021/08/06 10:22:23;;;;;;;1999.90;999.90;;;21.90;99.90;;;;;;4989003;28;20212;-69
2021/08/06 10:24:53;;;;;;;1999.90;999.90;;;21.80;99.90;;;;;;4989623;28;20734;-68
2021/08/06 10:27:23;;;;;;;1999.90;999.90;;;21.70;99.90;;;;;;4990187;28;21174;-67
2021/08/06 10:30:08;;;;;;;1999.90;999.90;;;21.60;99.90;;;;;;4989604;28;20460;-67
2021/08/06 10:32:36;;;;;;;1999.90;999.90;;;21.70;99.90;;;;;;4989841;28;20830;-68
2021/08/06 10:35:15;;;;;;;1999.90;999.90;;;21.70;99.90;;;;;;4988898;28;20428;-69
2021/08/06 10:38:03;;;;;;;1999.90;999.90;;;21.70;99.90;;;;;;4989656;28;20437;-69
2021/08/06 10:40:35;;;;;;;1999.90;999.90;;;22.00;99.90;;;;;;4990132;28;20420;-70
2021/08/06 10:43:37;;;;;;;1999.90;999.90;;;22.10;99.90;;;;;;4989209;28;20833;-68
2021/08/06 10:46:04;;;;;;;1999.90;999.90;;;22.20;99.90;;;;;;4988886;28;20447;-69
2021/08/06 10:48:38;;;;;;;1999.90;999.90;;;22.30;99.90;;;;;;4989692;28;20452;-67
2021/08/06 10:51:15;;;;;;;1999.90;999.90;;;22.30;99.90;;;;;;4989194;28;20424;-69
2021/08/06 10:54:01;;;;;;;1999.90;999.90;;;22.40;99.90;;;;;;4988870;28;20809;-68
2021/08/06 10:56:35;;;;;;;1999.90;999.90;;;22.30;99.90;;;;;;4981629;28;20887;-68
2021/08/06 10:59:10;;;;;;;1999.90;999.90;;;22.20;99.90;;;;;;4988272;28;20914;-69
2021/08/06 11:01:39;;;;;;;1999.90;999.90;;;21.80;99.90;;;;;;4989424;28;20387;-70
2021/08/06 11:04:11;;;;;;;1999.90;999.90;;;21.40;99.90;;;;;;4989810;28;20432;-68
2021/08/06 11:06:39;;;;;;;1999.90;999.90;;;21.00;99.90;;;;;;4988781;28;20852;-69
2021/08/06 11:09:10;;;;;;;1999.90;999.90;;;20.70;99.90;;;;;;4988837;28;20468;-69
2021/08/06 11:11:44;;;;;;;1999.90;999.90;;;20.50;99.90;;;;;;4989083;28;20426;-69
2021/08/06 11:14:14;;;;;;;1999.90;999.90;;;20.30;99.90;;;;;;4988258;28;20431;-69
2021/08/06 11:17:04;;;;;;;1999.90;999.90;;;20.00;99.90;;;;;;4989240;28;20945;-67
2021/08/06 11:19:41;;;;;;;1999.90;999.90;;;19.40;99.90;;;;;;4987838;28;20440;-71
2021/08/06 11:22:27;;;;;;;1999.90;999.90;;;18.90;99.90;;;;;;4988648;28;20530;-71
2021/08/06 11:25:07;;;;;;;1999.90;999.90;;;18.70;99.90;;;;;;4988825;28;20466;-71
2021/08/06 11:27:42;;;;;;;1999.90;999.90;;;18.70;99.90;;;;;;4988608;28;20406;-71
2021/08/06 11:30:13;;;;;;;1999.90;999.90;;;18.80;99.90;;;;;;4988801;28;21067;-70
2021/08/06 11:32:59;;;;;;;1999.90;999.90;;;19.10;99.90;;;;;;4988411;28;20457;-70
2021/08/06 11:35:32;;;;;;;1999.90;999.90;;;19.40;99.90;;;;;;4988373;28;20464;-69
2021/08/06 11:38:01;;;;;;;1999.90;999.90;;;19.60;99.90;;;;;;4988425;28;20408;-69
2021/08/06 11:40:37;;;;;;;1999.90;999.90;;;19.80;99.90;;;;;;4988025;28;20417;-69
2021/08/06 11:43:14;;;;;;;1999.90;999.90;;;20.00;99.90;;;;;;4987436;28;20507;-70
2021/08/06 11:45:42;;;;;;;1999.90;999.90;;;20.10;99.90;;;;;;4987730;28;20414;-68
2021/08/06 11:48:08;;;;;;;1999.90;999.90;;;20.40;99.90;;;;;;4988351;28;20424;-68
2021/08/06 11:50:43;;;;;;;1999.90;999.90;;;20.70;99.90;;;;;;4988573;28;20427;-69
2021/08/06 11:53:13;;;;;;;1999.90;999.90;;;21.10;99.90;;;;;;4987884;28;20197;-69
2021/08/06 11:55:39;;;;;;;1999.90;999.90;;;21.30;99.90;;;;;;4987780;28;20424;-67
2021/08/06 11:58:05;;;;;;;1999.90;999.90;;;21.40;99.90;;;;;;4987652;28;20416;-68
2021/08/06 12:00:33;;;;;;;1999.90;999.90;;;21.60;99.90;;;;;;4988177;28;20293;-69
2021/08/06 12:03:16;;;;;;;1999.90;999.90;;;21.80;99.90;;;;;;4987834;28;20259;-68
2021/08/06 12:05:42;;;;;;;1999.90;999.90;;;22.30;99.90;;;;;;4987096;28;20409;-69